KHKS/HKS METAR and TAF weather

Enter ICAO airport designator
Station Type Date Time Source
KHKS METAR 2021/10/20 05:53 UTC NOAA

KHKS 200553Z AUTO 13004KT 10SM CLR 16/11 A3016 RMK AO2 SLP205 T01560106 10194 20150 402610083 58002


Station Type Date Time Source
KHKS Decoded METAR 2021/10/20 05:53 UTC NOAA

HAWKINS FIELD, MS, United States (KHKS) 32-20N 090-13W 108M
Oct 20, 2021 - 01:53 AM EDT / 2021.10.20 0553 UTC
Wind: from the SE (130 degrees) at 5 MPH (4 KT):0
Visibility: 10 mile(s):0
Sky conditions: clear
Temperature: 60.1 F (15.6 C)
Dew Point: 51.1 F (10.6 C)
Relative Humidity: 72%
Pressure (altimeter): 30.16 in. Hg (1021 hPa)
Pressure tendency: 0.01 inches (0.2 hPa) lower than three hours ago
ob: KHKS 200553Z AUTO 13004KT 10SM CLR 16/11 A3016 RMK AO2 SLP205 T01560106 10194 20150 402610083 58002
cycle: 6

Station Type Date Time Source
KHKS TAF 2021/10/19 18:24 UTC NOAA

TAF KHKS 191721Z 1918/2018 14005KT P6SM SCT200
FM201100 14006KT P6SM SCT025 BKN200

Example: see airport list